sensor_id;sensor_type;location;lat;lon;timestamp;temperature;humidity
35395;DHT22;21500;45.308;9.488;2023-06-04T00:00:52;20.20;99.90
35395;DHT22;21500;45.308;9.488;2023-06-04T00:03:20;20.10;99.90
35395;DHT22;21500;45.308;9.488;2023-06-04T00:05:49;20.10;99.90
35395;DHT22;21500;45.308;9.488;2023-06-04T00:09:02;19.90;99.90
35395;DHT22;21500;45.308;9.488;2023-06-04T00:11:36;19.90;99.90
35395;DHT22;21500;45.308;9.488;2023-06-04T00:14:03;20.00;99.90
35395;DHT22;21500;45.308;9.488;2023-06-04T00:16:33;20.00;99.90
35395;DHT22;21500;45.308;9.488;2023-06-04T00:19:02;20.00;99.90
35395;DHT22;21500;45.308;9.488;2023-06-04T00:24:13;19.80;99.90
35395;DHT22;21500;45.308;9.488;2023-06-04T00:26:39;19.80;99.90
35395;DHT22;21500;45.308;9.488;2023-06-04T00:29:05;19.80;99.90
35395;DHT22;21500;45.308;9.488;2023-06-04T00:31:31;19.70;99.90
35395;DHT22;21500;45.308;9.488;2023-06-04T00:33:56;19.80;99.90
35395;DHT22;21500;45.308;9.488;2023-06-04T00:36:22;19.80;99.90
35395;DHT22;21500;45.308;9.488;2023-06-04T00:38:48;19.80;99.90
35395;DHT22;21500;45.308;9.488;2023-06-04T00:41:14;19.80;99.90
35395;DHT22;21500;45.308;9.488;2023-06-04T00:43:40;19.70;99.90
35395;DHT22;21500;45.308;9.488;2023-06-04T00:48:47;19.80;99.90
35395;DHT22;21500;45.308;9.488;2023-06-04T00:51:25;19.80;99.90
35395;DHT22;21500;45.308;9.488;2023-06-04T00:53:51;19.70;99.90
35395;DHT22;21500;45.308;9.488;2023-06-04T00:56:19;19.70;99.90
35395;DHT22;21500;45.308;9.488;2023-06-04T00:58:49;19.70;99.90
35395;DHT22;21500;45.308;9.488;2023-06-04T01:04:16;19.50;99.90
35395;DHT22;21500;45.308;9.488;2023-06-04T01:06:56;19.60;99.90
35395;DHT22;21500;45.308;9.488;2023-06-04T01:09:28;19.50;99.90
35395;DHT22;21500;45.308;9.488;2023-06-04T01:11:57;19.50;99.90
35395;DHT22;21500;45.308;9.488;2023-06-04T01:14:27;19.40;99.90
35395;DHT22;21500;45.308;9.488;2023-06-04T01:27:19;19.20;99.90
35395;DHT22;21500;45.308;9.488;2023-06-04T01:29:46;19.10;99.90
35395;DHT22;21500;45.308;9.488;2023-06-04T01:32:18;19.20;99.90
35395;DHT22;21500;45.308;9.488;2023-06-04T01:34:44;19.30;99.90
35395;DHT22;21500;45.308;9.488;2023-06-04T01:37:10;19.30;99.90
35395;DHT22;21500;45.308;9.488;2023-06-04T01:39:37;19.20;99.90
35395;DHT22;21500;45.308;9.488;2023-06-04T01:42:02;19.30;99.90
35395;DHT22;21500;45.308;9.488;2023-06-04T01:44:28;19.40;99.90
35395;DHT22;21500;45.308;9.488;2023-06-04T01:46:54;19.40;99.90
35395;DHT22;21500;45.308;9.488;2023-06-04T01:49:20;19.40;99.90
35395;DHT22;21500;45.308;9.488;2023-06-04T01:51:46;19.40;99.90
35395;DHT22;21500;45.308;9.488;2023-06-04T01:54:11;19.40;99.90
35395;DHT22;21500;45.308;9.488;2023-06-04T01:56:37;19.50;99.90
35395;DHT22;21500;45.308;9.488;2023-06-04T01:59:03;19.50;99.90
35395;DHT22;21500;45.308;9.488;2023-06-04T02:01:29;19.60;99.90
35395;DHT22;21500;45.308;9.488;2023-06-04T02:03:55;19.50;99.90
35395;DHT22;21500;45.308;9.488;2023-06-04T02:06:21;19.50;99.90
35395;DHT22;21500;45.308;9.488;2023-06-04T02:08:47;19.50;99.90
35395;DHT22;21500;45.308;9.488;2023-06-04T02:11:12;19.40;99.90
35395;DHT22;21500;45.308;9.488;2023-06-04T02:13:38;19.40;99.90
35395;DHT22;21500;45.308;9.488;2023-06-04T02:16:04;19.40;99.90
35395;DHT22;21500;45.308;9.488;2023-06-04T02:18:30;19.50;99.90
35395;DHT22;21500;45.308;9.488;2023-06-04T02:20:56;19.40;99.90
35395;DHT22;21500;45.308;9.488;2023-06-04T02:23:23;19.20;99.90
35395;DHT22;21500;45.308;9.488;2023-06-04T02:25:48;19.20;99.90
35395;DHT22;21500;45.308;9.488;2023-06-04T02:28:15;19.10;99.90
35395;DHT22;21500;45.308;9.488;2023-06-04T02:30:41;19.10;99.90
35395;DHT22;21500;45.308;9.488;2023-06-04T02:33:07;19.10;99.90
35395;DHT22;21500;45.308;9.488;2023-06-04T02:35:35;19.10;99.90
35395;DHT22;21500;45.308;9.488;2023-06-04T02:38:01;19.10;99.90
35395;DHT22;21500;45.308;9.488;2023-06-04T02:40:27;19.10;99.90
35395;DHT22;21500;45.308;9.488;2023-06-04T02:42:53;19.10;99.90
35395;DHT22;21500;45.308;9.488;2023-06-04T02:45:19;19.10;99.90
35395;DHT22;21500;45.308;9.488;2023-06-04T02:47:45;19.20;99.90
35395;DHT22;21500;45.308;9.488;2023-06-04T02:50:11;19.20;99.90
35395;DHT22;21500;45.308;9.488;2023-06-04T02:52:37;19.30;99.90
35395;DHT22;21500;45.308;9.488;2023-06-04T02:55:03;19.30;99.90
35395;DHT22;21500;45.308;9.488;2023-06-04T02:57:29;19.30;99.90
35395;DHT22;21500;45.308;9.488;2023-06-04T02:59:56;19.30;99.90
35395;DHT22;21500;45.308;9.488;2023-06-04T03:02:22;19.30;99.90
35395;DHT22;21500;45.308;9.488;2023-06-04T03:04:48;19.40;99.90
35395;DHT22;21500;45.308;9.488;2023-06-04T03:07:16;19.50;99.90
35395;DHT22;21500;45.308;9.488;2023-06-04T03:09:46;19.40;99.90
35395;DHT22;21500;45.308;9.488;2023-06-04T03:12:12;19.40;99.90
35395;DHT22;21500;45.308;9.488;2023-06-04T03:14:38;19.40;99.90
35395;DHT22;21500;45.308;9.488;2023-06-04T03:17:05;19.50;99.90
35395;DHT22;21500;45.308;9.488;2023-06-04T03:19:36;19.40;99.90
35395;DHT22;21500;45.308;9.488;2023-06-04T03:22:03;19.40;99.90
35395;DHT22;21500;45.308;9.488;2023-06-04T03:24:34;19.50;99.90
35395;DHT22;21500;45.308;9.488;2023-06-04T03:43:18;19.40;99.90
35395;DHT22;21500;45.308;9.488;2023-06-04T03:46:13;19.40;99.90
35395;DHT22;21500;45.308;9.488;2023-06-04T03:49:10;19.50;99.90
35395;DHT22;21500;45.308;9.488;2023-06-04T03:52:08;19.70;99.90
35395;DHT22;21500;45.308;9.488;2023-06-04T03:54:37;19.60;99.90
35395;DHT22;21500;45.308;9.488;2023-06-04T03:57:59;19.60;99.90
35395;DHT22;21500;45.308;9.488;2023-06-04T04:00:42;19.30;99.90
35395;DHT22;21500;45.308;9.488;2023-06-04T04:03:46;19.40;99.90
35395;DHT22;21500;45.308;9.488;2023-06-04T04:06:54;19.40;99.90
35395;DHT22;21500;45.308;9.488;2023-06-04T04:13:14;19.60;99.90
35395;DHT22;21500;45.308;9.488;2023-06-04T04:15:58;19.70;99.90
35395;DHT22;21500;45.308;9.488;2023-06-04T04:18:41;19.50;99.90
35395;DHT22;21500;45.308;9.488;2023-06-04T04:21:36;19.40;99.90
35395;DHT22;21500;45.308;9.488;2023-06-04T04:24:07;19.50;99.90
35395;DHT22;21500;45.308;9.488;2023-06-04T04:26:34;19.50;99.90
35395;DHT22;21500;45.308;9.488;2023-06-04T04:29:27;19.40;99.90
35395;DHT22;21500;45.308;9.488;2023-06-04T04:32:31;19.40;99.90
35395;DHT22;21500;45.308;9.488;2023-06-04T04:35:03;19.50;99.90
35395;DHT22;21500;45.308;9.488;2023-06-04T04:37:44;19.40;99.90
35395;DHT22;21500;45.308;9.488;2023-06-04T04:40:40;19.40;99.90
35395;DHT22;21500;45.308;9.488;2023-06-04T04:43:52;19.50;99.90
35395;DHT22;21500;45.308;9.488;2023-06-04T04:46:48;19.50;99.90
35395;DHT22;21500;45.308;9.488;2023-06-04T04:49:20;19.60;99.90
35395;DHT22;21500;45.308;9.488;2023-06-04T04:51:47;19.40;99.90
35395;DHT22;21500;45.308;9.488;2023-06-04T04:55:17;19.60;99.90
35395;DHT22;21500;45.308;9.488;2023-06-04T04:57:49;19.60;99.90
35395;DHT22;21500;45.308;9.488;2023-06-04T05:00:29;19.60;99.90
35395;DHT22;21500;45.308;9.488;2023-06-04T05:03:05;19.50;99.90
35395;DHT22;21500;45.308;9.488;2023-06-04T05:05:33;19.60;99.90
35395;DHT22;21500;45.308;9.488;2023-06-04T05:08:08;19.70;99.90
35395;DHT22;21500;45.308;9.488;2023-06-04T05:10:54;19.60;99.90
35395;DHT22;21500;45.308;9.488;2023-06-04T05:13:24;19.60;99.90
35395;DHT22;21500;45.308;9.488;2023-06-04T05:15:59;19.70;99.90
35395;DHT22;21500;45.308;9.488;2023-06-04T05:18:51;19.60;99.90
35395;DHT22;21500;45.308;9.488;2023-06-04T05:21:42;19.60;99.90
35395;DHT22;21500;45.308;9.488;2023-06-04T05:24:53;19.70;99.90
35395;DHT22;21500;45.308;9.488;2023-06-04T05:56:09;20.60;99.90
35395;DHT22;21500;45.308;9.488;2023-06-04T05:58:36;20.50;99.90
35395;DHT22;21500;45.308;9.488;2023-06-04T06:01:04;20.50;99.90
35395;DHT22;21500;45.308;9.488;2023-06-04T06:03:30;20.70;99.90
35395;DHT22;21500;45.308;9.488;2023-06-04T06:05:57;20.70;99.90
35395;DHT22;21500;45.308;9.488;2023-06-04T06:08:25;20.70;99.90
35395;DHT22;21500;45.308;9.488;2023-06-04T06:10:54;20.70;99.90
35395;DHT22;21500;45.308;9.488;2023-06-04T06:13:24;20.90;99.90
35395;DHT22;21500;45.308;9.488;2023-06-04T06:15:50;20.80;99.90
35395;DHT22;21500;45.308;9.488;2023-06-04T06:18:19;21.10;99.90
35395;DHT22;21500;45.308;9.488;2023-06-04T06:20:45;21.30;99.90
35395;DHT22;21500;45.308;9.488;2023-06-04T06:23:11;21.10;99.90
35395;DHT22;21500;45.308;9.488;2023-06-04T06:25:42;21.20;99.90
35395;DHT22;21500;45.308;9.488;2023-06-04T06:28:18;21.20;99.90
35395;DHT22;21500;45.308;9.488;2023-06-04T06:30:45;21.50;99.90
35395;DHT22;21500;45.308;9.488;2023-06-04T06:33:12;21.60;99.90
35395;DHT22;21500;45.308;9.488;2023-06-04T06:35:43;21.40;99.90
35395;DHT22;21500;45.308;9.488;2023-06-04T06:38:12;21.40;99.90
35395;DHT22;21500;45.308;9.488;2023-06-04T06:40:40;21.60;99.90
35395;DHT22;21500;45.308;9.488;2023-06-04T06:43:06;21.60;99.90
35395;DHT22;21500;45.308;9.488;2023-06-04T06:45:32;21.70;99.90
35395;DHT22;21500;45.308;9.488;2023-06-04T06:47:58;21.70;99.90
35395;DHT22;21500;45.308;9.488;2023-06-04T06:50:24;21.70;99.90
35395;DHT22;21500;45.308;9.488;2023-06-04T06:52:49;21.80;99.90
35395;DHT22;21500;45.308;9.488;2023-06-04T06:55:15;22.10;99.90
35395;DHT22;21500;45.308;9.488;2023-06-04T06:57:41;21.90;99.90
35395;DHT22;21500;45.308;9.488;2023-06-04T07:00:07;21.80;99.90
35395;DHT22;21500;45.308;9.488;2023-06-04T07:02:52;21.80;99.90
35395;DHT22;21500;45.308;9.488;2023-06-04T07:05:18;21.90;99.90
35395;DHT22;21500;45.308;9.488;2023-06-04T07:07:54;21.80;99.90
35395;DHT22;21500;45.308;9.488;2023-06-04T07:27:19;22.40;99.90
35395;DHT22;21500;45.308;9.488;2023-06-04T08:04:46;23.00;99.90
35395;DHT22;21500;45.308;9.488;2023-06-04T08:07:12;23.20;99.90
35395;DHT22;21500;45.308;9.488;2023-06-04T08:09:38;23.30;99.90
35395;DHT22;21500;45.308;9.488;2023-06-04T08:12:04;23.40;99.90
35395;DHT22;21500;45.308;9.488;2023-06-04T08:14:29;23.50;99.90
35395;DHT22;21500;45.308;9.488;2023-06-04T08:16:55;23.60;99.90
35395;DHT22;21500;45.308;9.488;2023-06-04T08:19:21;23.60;99.90
35395;DHT22;21500;45.308;9.488;2023-06-04T08:21:47;23.30;99.90
35395;DHT22;21500;45.308;9.488;2023-06-04T08:24:12;23.50;99.90
35395;DHT22;21500;45.308;9.488;2023-06-04T08:26:38;23.70;99.90
35395;DHT22;21500;45.308;9.488;2023-06-04T08:29:05;23.60;99.90
35395;DHT22;21500;45.308;9.488;2023-06-04T08:31:30;23.70;99.90
35395;DHT22;21500;45.308;9.488;2023-06-04T08:33:56;23.40;99.90
35395;DHT22;21500;45.308;9.488;2023-06-04T08:36:22;23.60;99.90
35395;DHT22;21500;45.308;9.488;2023-06-04T08:38:47;23.30;99.90
35395;DHT22;21500;45.308;9.488;2023-06-04T08:41:20;23.60;99.90
35395;DHT22;21500;45.308;9.488;2023-06-04T08:43:48;23.70;99.90
35395;DHT22;21500;45.308;9.488;2023-06-04T08:46:15;23.90;99.90
35395;DHT22;21500;45.308;9.488;2023-06-04T08:48:41;24.00;99.90
35395;DHT22;21500;45.308;9.488;2023-06-04T08:51:07;23.90;99.90
35395;DHT22;21500;45.308;9.488;2023-06-04T08:53:35;24.10;99.90
35395;DHT22;21500;45.308;9.488;2023-06-04T08:56:02;24.40;99.90
35395;DHT22;21500;45.308;9.488;2023-06-04T08:58:32;24.50;99.90
35395;DHT22;21500;45.308;9.488;2023-06-04T09:01:00;23.90;99.90
35395;DHT22;21500;45.308;9.488;2023-06-04T09:03:26;23.90;99.90
35395;DHT22;21500;45.308;9.488;2023-06-04T09:05:53;24.20;99.90
35395;DHT22;21500;45.308;9.488;2023-06-04T09:08:20;24.10;99.90
35395;DHT22;21500;45.308;9.488;2023-06-04T09:10:46;23.80;99.90
35395;DHT22;21500;45.308;9.488;2023-06-04T09:13:17;23.60;99.90
35395;DHT22;21500;45.308;9.488;2023-06-04T09:15:43;23.50;99.90
35395;DHT22;21500;45.308;9.488;2023-06-04T09:18:08;23.50;99.90
35395;DHT22;21500;45.308;9.488;2023-06-04T09:20:34;23.60;99.90
35395;DHT22;21500;45.308;9.488;2023-06-04T09:23:00;23.80;99.90
35395;DHT22;21500;45.308;9.488;2023-06-04T09:25:26;23.80;99.90
35395;DHT22;21500;45.308;9.488;2023-06-04T09:27:57;23.80;99.90
35395;DHT22;21500;45.308;9.488;2023-06-04T09:30:30;24.00;99.90
35395;DHT22;21500;45.308;9.488;2023-06-04T09:33:05;24.40;99.90
35395;DHT22;21500;45.308;9.488;2023-06-04T09:35:31;24.70;99.90
35395;DHT22;21500;45.308;9.488;2023-06-04T09:37:57;24.30;99.90
35395;DHT22;21500;45.308;9.488;2023-06-04T09:40:24;24.30;99.90
35395;DHT22;21500;45.308;9.488;2023-06-04T09:42:50;24.70;99.90
35395;DHT22;21500;45.308;9.488;2023-06-04T09:45:26;24.80;99.90
35395;DHT22;21500;45.308;9.488;2023-06-04T09:47:52;24.70;99.90
35395;DHT22;21500;45.308;9.488;2023-06-04T09:50:17;24.70;99.90
35395;DHT22;21500;45.308;9.488;2023-06-04T09:52:50;24.80;99.90
35395;DHT22;21500;45.308;9.488;2023-06-04T09:55:17;25.20;99.90
35395;DHT22;21500;45.308;9.488;2023-06-04T09:57:47;25.40;99.90
35395;DHT22;21500;45.308;9.488;2023-06-04T10:00:17;25.30;99.90
35395;DHT22;21500;45.308;9.488;2023-06-04T10:02:43;25.50;99.90
35395;DHT22;21500;45.308;9.488;2023-06-04T10:05:09;25.20;99.90
35395;DHT22;21500;45.308;9.488;2023-06-04T10:07:37;25.20;99.90
35395;DHT22;21500;45.308;9.488;2023-06-04T10:10:04;25.50;99.90
35395;DHT22;21500;45.308;9.488;2023-06-04T10:12:30;25.50;99.90
35395;DHT22;21500;45.308;9.488;2023-06-04T10:14:58;25.80;99.90
35395;DHT22;21500;45.308;9.488;2023-06-04T10:17:25;25.70;99.90
35395;DHT22;21500;45.308;9.488;2023-06-04T10:19:52;25.20;99.90
35395;DHT22;21500;45.308;9.488;2023-06-04T10:22:22;25.20;99.90
35395;DHT22;21500;45.308;9.488;2023-06-04T10:24:49;25.40;99.90
35395;DHT22;21500;45.308;9.488;2023-06-04T10:27:16;25.60;99.90
35395;DHT22;21500;45.308;9.488;2023-06-04T10:29:42;25.40;99.90
35395;DHT22;21500;45.308;9.488;2023-06-04T10:32:09;25.30;99.90
35395;DHT22;21500;45.308;9.488;2023-06-04T10:34:34;25.60;99.90
35395;DHT22;21500;45.308;9.488;2023-06-04T10:37:01;25.50;99.90
35395;DHT22;21500;45.308;9.488;2023-06-04T10:39:28;25.20;99.90
35395;DHT22;21500;45.308;9.488;2023-06-04T10:42:03;25.00;99.90
35395;DHT22;21500;45.308;9.488;2023-06-04T10:44:30;25.20;99.90
35395;DHT22;21500;45.308;9.488;2023-06-04T10:46:56;25.40;99.90
35395;DHT22;21500;45.308;9.488;2023-06-04T10:49:31;25.50;99.90
35395;DHT22;21500;45.308;9.488;2023-06-04T10:51:57;25.70;99.90
35395;DHT22;21500;45.308;9.488;2023-06-04T10:54:28;25.40;99.90
35395;DHT22;21500;45.308;9.488;2023-06-04T10:56:57;25.50;99.90
35395;DHT22;21500;45.308;9.488;2023-06-04T10:59:23;25.60;99.90
35395;DHT22;21500;45.308;9.488;2023-06-04T11:01:49;25.70;99.90
35395;DHT22;21500;45.308;9.488;2023-06-04T11:04:22;25.50;99.90
35395;DHT22;21500;45.308;9.488;2023-06-04T11:06:48;25.70;99.90
35395;DHT22;21500;45.308;9.488;2023-06-04T11:09:14;25.90;99.90
35395;DHT22;21500;45.308;9.488;2023-06-04T11:11:42;25.90;99.90
35395;DHT22;21500;45.308;9.488;2023-06-04T11:14:11;25.80;99.90
35395;DHT22;21500;45.308;9.488;2023-06-04T11:16:38;25.80;99.90
35395;DHT22;21500;45.308;9.488;2023-06-04T11:19:04;25.80;99.90
35395;DHT22;21500;45.308;9.488;2023-06-04T11:21:30;25.80;99.90
35395;DHT22;21500;45.308;9.488;2023-06-04T11:23:57;25.80;99.90
35395;DHT22;21500;45.308;9.488;2023-06-04T11:26:30;25.80;99.90
35395;DHT22;21500;45.308;9.488;2023-06-04T11:28:56;25.60;99.90
35395;DHT22;21500;45.308;9.488;2023-06-04T11:31:21;25.50;99.90
35395;DHT22;21500;45.308;9.488;2023-06-04T11:33:48;25.60;99.90
35395;DHT22;21500;45.308;9.488;2023-06-04T11:36:23;25.80;99.90
35395;DHT22;21500;45.308;9.488;2023-06-04T11:38:56;25.50;99.90
35395;DHT22;21500;45.308;9.488;2023-06-04T11:41:23;25.80;99.90
35395;DHT22;21500;45.308;9.488;2023-06-04T11:43:49;25.90;99.90
35395;DHT22;21500;45.308;9.488;2023-06-04T11:46:15;25.80;99.90
35395;DHT22;21500;45.308;9.488;2023-06-04T11:48:41;25.70;99.90
35395;DHT22;21500;45.308;9.488;2023-06-04T11:51:07;25.70;99.90
35395;DHT22;21500;45.308;9.488;2023-06-04T11:53:36;25.80;99.90
35395;DHT22;21500;45.308;9.488;2023-06-04T11:56:02;25.80;99.90
35395;DHT22;21500;45.308;9.488;2023-06-04T11:58:32;25.90;99.90
35395;DHT22;21500;45.308;9.488;2023-06-04T12:00:58;25.60;99.90
35395;DHT22;21500;45.308;9.488;2023-06-04T12:03:33;25.50;99.90
35395;DHT22;21500;45.308;9.488;2023-06-04T12:06:08;25.30;99.90
35395;DHT22;21500;45.308;9.488;2023-06-04T12:08:34;25.30;99.90
35395;DHT22;21500;45.308;9.488;2023-06-04T12:11:19;25.10;99.90
35395;DHT22;21500;45.308;9.488;2023-06-04T12:13:45;24.90;99.90
35395;DHT22;21500;45.308;9.488;2023-06-04T12:16:14;24.90;99.90
35395;DHT22;21500;45.308;9.488;2023-06-04T12:18:39;24.90;99.90
35395;DHT22;21500;45.308;9.488;2023-06-04T12:21:05;24.90;99.90
35395;DHT22;21500;45.308;9.488;2023-06-04T12:23:41;25.00;99.90
35395;DHT22;21500;45.308;9.488;2023-06-04T12:26:07;24.90;99.90
35395;DHT22;21500;45.308;9.488;2023-06-04T12:28:32;25.00;99.90
35395;DHT22;21500;45.308;9.488;2023-06-04T12:31:01;25.10;99.90
35395;DHT22;21500;45.308;9.488;2023-06-04T12:33:28;25.20;99.90
35395;DHT22;21500;45.308;9.488;2023-06-04T12:35:55;25.20;99.90
35395;DHT22;21500;45.308;9.488;2023-06-04T12:38:20;25.10;99.90
35395;DHT22;21500;45.308;9.488;2023-06-04T12:40:46;25.20;99.90
35395;DHT22;21500;45.308;9.488;2023-06-04T12:43:12;25.40;99.90
35395;DHT22;21500;45.308;9.488;2023-06-04T12:45:37;25.50;99.90
35395;DHT22;21500;45.308;9.488;2023-06-04T12:48:03;25.80;99.90
35395;DHT22;21500;45.308;9.488;2023-06-04T12:50:29;25.80;99.90
35395;DHT22;21500;45.308;9.488;2023-06-04T12:52:55;25.80;99.90
35395;DHT22;21500;45.308;9.488;2023-06-04T12:55:20;25.90;99.90
35395;DHT22;21500;45.308;9.488;2023-06-04T12:57:46;26.30;99.90
35395;DHT22;21500;45.308;9.488;2023-06-04T13:00:13;26.60;99.90
35395;DHT22;21500;45.308;9.488;2023-06-04T13:02:40;26.80;99.90
35395;DHT22;21500;45.308;9.488;2023-06-04T13:05:06;26.60;99.90
35395;DHT22;21500;45.308;9.488;2023-06-04T13:07:31;26.50;99.90
35395;DHT22;21500;45.308;9.488;2023-06-04T13:09:57;26.60;99.90
35395;DHT22;21500;45.308;9.488;2023-06-04T13:12:23;26.70;99.90
35395;DHT22;21500;45.308;9.488;2023-06-04T13:14:48;26.60;99.90
35395;DHT22;21500;45.308;9.488;2023-06-04T13:17:14;26.70;99.90
35395;DHT22;21500;45.308;9.488;2023-06-04T13:19:40;26.30;99.90
35395;DHT22;21500;45.308;9.488;2023-06-04T13:22:06;26.40;99.90
35395;DHT22;21500;45.308;9.488;2023-06-04T13:24:32;26.30;99.90
35395;DHT22;21500;45.308;9.488;2023-06-04T13:26:57;26.40;99.90
35395;DHT22;21500;45.308;9.488;2023-06-04T13:29:24;26.30;99.90
35395;DHT22;21500;45.308;9.488;2023-06-04T13:31:50;26.20;99.90
35395;DHT22;21500;45.308;9.488;2023-06-04T13:34:16;26.30;99.90
35395;DHT22;21500;45.308;9.488;2023-06-04T13:36:41;26.40;99.90
35395;DHT22;21500;45.308;9.488;2023-06-04T13:39:07;26.50;99.90
35395;DHT22;21500;45.308;9.488;2023-06-04T13:41:33;26.60;99.90
35395;DHT22;21500;45.308;9.488;2023-06-04T13:43:58;26.50;99.90
35395;DHT22;21500;45.308;9.488;2023-06-04T13:48:54;26.60;99.90
35395;DHT22;21500;45.308;9.488;2023-06-04T13:51:48;26.60;99.90
35395;DHT22;21500;45.308;9.488;2023-06-04T13:54:20;26.50;99.90
35395;DHT22;21500;45.308;9.488;2023-06-04T13:56:49;26.60;99.90
35395;DHT22;21500;45.308;9.488;2023-06-04T13:59:15;26.50;99.90
35395;DHT22;21500;45.308;9.488;2023-06-04T14:01:41;26.40;99.90
35395;DHT22;21500;45.308;9.488;2023-06-04T14:04:43;26.40;99.90
35395;DHT22;21500;45.308;9.488;2023-06-04T14:07:09;26.30;99.90
35395;DHT22;21500;45.308;9.488;2023-06-04T14:10:01;26.00;99.90
35395;DHT22;21500;45.308;9.488;2023-06-04T14:12:27;25.30;99.90
35395;DHT22;21500;45.308;9.488;2023-06-04T14:14:54;25.10;99.90
35395;DHT22;21500;45.308;9.488;2023-06-04T14:17:19;25.30;99.90
35395;DHT22;21500;45.308;9.488;2023-06-04T14:19:45;25.40;99.90
35395;DHT22;21500;45.308;9.488;2023-06-04T14:22:11;25.30;99.90
35395;DHT22;21500;45.308;9.488;2023-06-04T14:24:37;25.30;99.90
35395;DHT22;21500;45.308;9.488;2023-06-04T14:27:03;25.30;99.90
35395;DHT22;21500;45.308;9.488;2023-06-04T14:29:29;25.30;99.90
35395;DHT22;21500;45.308;9.488;2023-06-04T14:31:55;25.20;99.90
35395;DHT22;21500;45.308;9.488;2023-06-04T14:34:21;25.20;99.90
35395;DHT22;21500;45.308;9.488;2023-06-04T14:36:46;25.20;99.90
35395;DHT22;21500;45.308;9.488;2023-06-04T14:39:12;25.20;99.90
35395;DHT22;21500;45.308;9.488;2023-06-04T14:41:47;25.10;99.90
35395;DHT22;21500;45.308;9.488;2023-06-04T14:44:16;24.80;99.90
35395;DHT22;21500;45.308;9.488;2023-06-04T14:46:45;24.40;99.90
35395;DHT22;21500;45.308;9.488;2023-06-04T14:49:11;24.40;99.90
35395;DHT22;21500;45.308;9.488;2023-06-04T14:51:37;24.20;99.90
35395;DHT22;21500;45.308;9.488;2023-06-04T14:54:03;23.90;99.90
35395;DHT22;21500;45.308;9.488;2023-06-04T14:56:29;23.20;99.90
35395;DHT22;21500;45.308;9.488;2023-06-04T14:58:56;22.80;99.90
35395;DHT22;21500;45.308;9.488;2023-06-04T15:01:22;22.60;99.90
35395;DHT22;21500;45.308;9.488;2023-06-04T15:03:50;22.20;99.90
35395;DHT22;21500;45.308;9.488;2023-06-04T15:06:18;21.80;99.90
35395;DHT22;21500;45.308;9.488;2023-06-04T15:08:45;21.80;99.90
35395;DHT22;21500;45.308;9.488;2023-06-04T15:11:14;21.90;99.90
35395;DHT22;21500;45.308;9.488;2023-06-04T15:13:40;21.80;99.90
35395;DHT22;21500;45.308;9.488;2023-06-04T15:16:06;21.80;99.90
35395;DHT22;21500;45.308;9.488;2023-06-04T15:18:32;21.50;99.90
35395;DHT22;21500;45.308;9.488;2023-06-04T15:20:58;21.40;99.90
35395;DHT22;21500;45.308;9.488;2023-06-04T15:23:25;21.40;99.90
35395;DHT22;21500;45.308;9.488;2023-06-04T15:25:50;21.30;99.90
35395;DHT22;21500;45.308;9.488;2023-06-04T15:28:17;21.10;99.90
35395;DHT22;21500;45.308;9.488;2023-06-04T15:30:42;21.00;99.90
35395;DHT22;21500;45.308;9.488;2023-06-04T15:33:08;21.00;99.90
35395;DHT22;21500;45.308;9.488;2023-06-04T15:35:33;21.10;99.90
35395;DHT22;21500;45.308;9.488;2023-06-04T15:37:59;21.10;99.90
35395;DHT22;21500;45.308;9.488;2023-06-04T15:40:25;21.00;99.90
35395;DHT22;21500;45.308;9.488;2023-06-04T15:42:50;20.90;99.90
35395;DHT22;21500;45.308;9.488;2023-06-04T15:45:16;20.80;99.90
35395;DHT22;21500;45.308;9.488;2023-06-04T15:47:42;20.60;99.90
35395;DHT22;21500;45.308;9.488;2023-06-04T15:50:08;20.40;99.90
35395;DHT22;21500;45.308;9.488;2023-06-04T15:52:34;20.30;99.90
35395;DHT22;21500;45.308;9.488;2023-06-04T15:55:00;20.30;99.90
35395;DHT22;21500;45.308;9.488;2023-06-04T15:57:25;20.30;99.90
35395;DHT22;21500;45.308;9.488;2023-06-04T15:59:51;20.30;99.90
35395;DHT22;21500;45.308;9.488;2023-06-04T16:02:17;20.30;99.90
35395;DHT22;21500;45.308;9.488;2023-06-04T16:04:42;20.30;99.90
35395;DHT22;21500;45.308;9.488;2023-06-04T16:07:08;20.50;99.90
35395;DHT22;21500;45.308;9.488;2023-06-04T16:09:34;20.50;99.90
35395;DHT22;21500;45.308;9.488;2023-06-04T16:11:59;20.60;99.90
35395;DHT22;21500;45.308;9.488;2023-06-04T16:14:25;20.50;99.90
35395;DHT22;21500;45.308;9.488;2023-06-04T16:16:51;20.40;99.90
35395;DHT22;21500;45.308;9.488;2023-06-04T16:19:17;20.50;99.90
35395;DHT22;21500;45.308;9.488;2023-06-04T16:21:43;20.50;99.90
35395;DHT22;21500;45.308;9.488;2023-06-04T16:24:09;20.60;99.90
35395;DHT22;21500;45.308;9.488;2023-06-04T16:26:34;20.50;99.90
35395;DHT22;21500;45.308;9.488;2023-06-04T16:29:00;20.40;99.90
35395;DHT22;21500;45.308;9.488;2023-06-04T16:31:26;20.40;99.90
35395;DHT22;21500;45.308;9.488;2023-06-04T16:33:51;20.70;99.90
35395;DHT22;21500;45.308;9.488;2023-06-04T16:36:17;20.70;99.90
35395;DHT22;21500;45.308;9.488;2023-06-04T16:38:43;20.80;99.90
35395;DHT22;21500;45.308;9.488;2023-06-04T16:41:08;20.70;99.90
35395;DHT22;21500;45.308;9.488;2023-06-04T16:43:34;20.80;99.90
35395;DHT22;21500;45.308;9.488;2023-06-04T16:46:00;20.80;99.90
35395;DHT22;21500;45.308;9.488;2023-06-04T16:48:25;20.80;99.90
35395;DHT22;21500;45.308;9.488;2023-06-04T16:50:51;20.90;99.90
35395;DHT22;21500;45.308;9.488;2023-06-04T16:53:18;20.80;99.90
35395;DHT22;21500;45.308;9.488;2023-06-04T16:55:45;20.90;99.90
35395;DHT22;21500;45.308;9.488;2023-06-04T16:58:11;20.80;99.90
35395;DHT22;21500;45.308;9.488;2023-06-04T17:00:37;20.80;99.90
35395;DHT22;21500;45.308;9.488;2023-06-04T17:03:02;20.80;99.90
35395;DHT22;21500;45.308;9.488;2023-06-04T17:05:28;20.80;99.90
35395;DHT22;21500;45.308;9.488;2023-06-04T17:07:54;20.90;99.90
35395;DHT22;21500;45.308;9.488;2023-06-04T17:10:21;20.90;99.90
35395;DHT22;21500;45.308;9.488;2023-06-04T17:12:46;20.70;99.90
35395;DHT22;21500;45.308;9.488;2023-06-04T17:15:12;20.70;99.90
35395;DHT22;21500;45.308;9.488;2023-06-04T17:17:38;20.90;99.90
35395;DHT22;21500;45.308;9.488;2023-06-04T17:20:09;20.90;99.90
35395;DHT22;21500;45.308;9.488;2023-06-04T17:22:36;20.90;99.90
35395;DHT22;21500;45.308;9.488;2023-06-04T17:25:03;20.90;99.90
35395;DHT22;21500;45.308;9.488;2023-06-04T17:27:29;20.80;99.90
35395;DHT22;21500;45.308;9.488;2023-06-04T17:29:55;20.90;99.90
35395;DHT22;21500;45.308;9.488;2023-06-04T17:32:20;20.80;99.90
35395;DHT22;21500;45.308;9.488;2023-06-04T17:34:46;20.80;99.90
35395;DHT22;21500;45.308;9.488;2023-06-04T17:37:11;21.00;99.90
35395;DHT22;21500;45.308;9.488;2023-06-04T17:39:37;21.00;99.90
35395;DHT22;21500;45.308;9.488;2023-06-04T17:42:03;21.00;99.90
35395;DHT22;21500;45.308;9.488;2023-06-04T17:44:29;21.00;99.90